Time;durP1;ratioP1;P1;durP2;ratioP2;P2;SDS_P1;SDS_P2;PMS_P1;PMS_P2;Temp;Humidity;BMP_temperature;BMP_pressure;BME280_temperature;BME280_humidity;BME280_pressure;Samples;Min_cycle;Max_cycle;Signal;HPM_P1;HPM_P2
2023/09/19 00:00:31;;;;;;;2.27;1.60;;;;;;;16.91;87.03;100178.63;4996585;28;21134;-69
2023/09/19 00:02:59;;;;;;;3.00;1.57;;;;;;;16.90;87.67;100175.22;4999604;28;20211;-70
2023/09/19 00:05:27;;;;;;;2.63;1.70;;;;;;;16.89;87.91;100181.72;5000041;28;21269;-69
2023/09/19 00:07:56;;;;;;;4.57;1.87;;;;;;;16.89;88.57;100175.59;4997972;28;20288;-69
2023/09/19 00:10:24;;;;;;;5.33;1.83;;;;;;;16.89;88.19;100181.72;4997238;28;20527;-70
2023/09/19 00:12:51;;;;;;;2.70;1.80;;;;;;;16.89;88.19;100181.72;4999854;28;20290;-69
2023/09/19 00:15:18;;;;;;;3.47;2.03;;;;;;;16.89;88.45;100184.38;5000294;28;20211;-69
2023/09/19 00:17:45;;;;;;;2.40;1.90;;;;;;;16.89;88.79;100175.59;5001673;28;20207;-69
2023/09/19 00:20:13;;;;;;;3.97;1.90;;;;;;;16.90;88.87;100185.91;4995829;28;20223;-69
2023/09/19 00:22:42;;;;;;;2.47;1.67;;;;;;;16.91;89.59;100182.09;4999014;28;20330;-69
2023/09/19 00:25:11;;;;;;;6.83;1.80;;;;;;;16.89;88.93;100192.38;4997471;28;20329;-69
2023/09/19 00:27:41;;;;;;;2.37;2.00;;;;;;;16.90;88.99;100185.91;4998010;28;20225;-69
2023/09/19 00:30:14;;;;;;;3.13;2.07;;;;;;;16.92;89.48;100196.94;4982915;28;20233;-68
2023/09/19 00:32:40;;;;;;;5.57;2.00;;;;;;;16.91;89.09;100197.31;5000404;28;20218;-70
2023/09/19 00:35:07;;;;;;;5.00;1.77;;;;;;;16.90;88.90;100193.91;4979128;28;20219;-69
2023/09/19 00:37:34;;;;;;;2.90;1.93;;;;;;;16.89;88.53;100184.38;4980534;28;20309;-69
2023/09/19 00:40:05;;;;;;;2.03;1.77;;;;;;;16.89;89.07;100188.94;4996617;28;20628;-69
2023/09/19 00:42:33;;;;;;;2.70;1.80;;;;;;;16.88;88.42;100180.16;4979906;28;20550;-68
2023/09/19 00:45:03;;;;;;;6.03;1.80;;;;;;;16.87;89.11;100181.28;4991312;28;20207;-69
2023/09/19 00:47:30;;;;;;;3.23;1.70;;;;;;;16.87;88.91;100189.31;4982659;28;20237;-69
2023/09/19 00:49:57;;;;;;;2.73;1.53;;;;;;;16.84;88.71;100186.63;4985678;28;20380;-69
2023/09/19 00:52:24;;;;;;;3.27;2.07;;;;;;;16.83;88.62;100180.53;4995705;28;20927;-70
2023/09/19 00:54:52;;;;;;;2.03;1.77;;;;;;;16.81;88.13;100176.72;4998184;28;21382;-69
2023/09/19 00:57:22;;;;;;;3.43;1.77;;;;;;;16.79;88.27;100179.75;4994303;28;20910;-70
2023/09/19 00:59:53;;;;;;;2.20;1.60;;;;;;;16.76;88.37;100177.09;4979655;28;20361;-69
2023/09/19 01:02:21;;;;;;;5.47;1.87;;;;;;;16.75;88.45;100175.53;4978999;28;20217;-69
2023/09/19 01:04:47;;;;;;;2.77;1.80;;;;;;;16.72;88.64;100177.06;4994844;28;20349;-69
2023/09/19 01:07:15;;;;;;;4.57;1.70;;;;;;;16.69;88.51;100175.16;4990361;28;20739;-69
2023/09/19 01:09:42;;;;;;;2.07;1.70;;;;;;;16.68;88.80;100167.53;4997207;28;20237;-70
2023/09/19 01:12:10;;;;;;;5.97;1.50;;;;;;;16.65;88.76;100158.38;5004830;28;20223;-69
2023/09/19 01:14:57;;;;;;;4.87;1.60;;;;;;;16.64;88.86;100156.06;4983573;28;20206;-69
2023/09/19 01:17:28;;;;;;;3.30;1.60;;;;;;;16.61;88.62;100149.59;4985297;28;20203;-69
2023/09/19 01:20:24;;;;;;;5.37;1.60;;;;;;;16.60;88.83;100152.63;4982662;28;20223;-69
2023/09/19 01:23:01;;;;;;;5.50;1.50;;;;;;;16.58;89.09;100154.91;4997237;28;20431;-70
2023/09/19 01:26:08;;;;;;;3.73;1.60;;;;;;;16.57;88.86;100150.72;4997867;28;20203;-69
2023/09/19 01:28:47;;;;;;;1.60;1.40;;;;;;;16.54;88.70;100157.56;4998235;28;20223;-69
2023/09/19 01:31:16;;;;;;;4.10;1.50;;;;;;;16.53;88.38;100157.94;4982735;28;21469;-70
2023/09/19 01:33:59;;;;;;;2.73;1.70;;;;;;;16.50;89.40;100153.38;4980535;28;20207;-70
2023/09/19 01:36:25;;;;;;;4.63;1.97;;;;;;;16.49;89.04;100147.28;4997084;28;20214;-69
2023/09/19 01:38:53;;;;;;;4.10;1.80;;;;;;;16.48;89.31;100155.63;4981553;28;20604;-68
2023/09/19 01:41:27;;;;;;;3.33;1.93;;;;;;;16.46;89.04;100161.34;4975647;28;20252;-69
2023/09/19 01:43:53;;;;;;;3.27;1.57;;;;;;;16.46;89.80;100160.59;4994147;28;21516;-69
2023/09/19 01:46:26;;;;;;;4.03;1.70;;;;;;;16.46;90.23;100160.59;4983292;28;20241;-70
2023/09/19 01:49:06;;;;;;;4.40;2.17;;;;;;;16.45;90.14;100151.06;4978942;28;20218;-69
2023/09/19 01:51:38;;;;;;;3.47;1.53;;;;;;;16.44;90.32;100158.28;4982605;28;20374;-69
2023/09/19 01:54:09;;;;;;;2.83;1.77;;;;;;;16.45;90.24;100159.81;5004099;28;20218;-69
2023/09/19 01:56:40;;;;;;;1.93;1.70;;;;;;;16.45;90.61;100151.06;4984329;28;20214;-69
2023/09/19 01:59:11;;;;;;;4.40;1.90;;;;;;;16.45;89.99;100153.72;4977609;28;20242;-69
2023/09/19 02:01:41;;;;;;;3.97;1.70;;;;;;;16.45;90.53;100161.72;4988568;28;20206;-70
2023/09/19 02:04:08;;;;;;;4.90;1.80;;;;;;;16.45;90.51;100164.41;4988053;28;21850;-70
2023/09/19 02:06:35;;;;;;;4.27;2.10;;;;;;;16.45;90.03;100167.06;4995549;28;20207;-69
2023/09/19 02:09:02;;;;;;;3.23;2.17;;;;;;;16.45;89.84;100167.06;4987246;28;20233;-69
2023/09/19 02:11:29;;;;;;;2.33;1.70;;;;;;;16.43;89.90;100170.09;4980169;28;20804;-69
2023/09/19 02:13:55;;;;;;;2.93;1.60;;;;;;;16.44;90.20;100168.19;4998207;28;20214;-69
2023/09/19 02:16:22;;;;;;;3.57;2.00;;;;;;;16.43;90.00;100170.09;4996125;28;20206;-69
2023/09/19 02:18:51;;;;;;;4.30;1.97;;;;;;;16.44;89.80;100176.16;5008185;28;22067;-69
2023/09/19 02:21:17;;;;;;;2.50;1.77;;;;;;;16.43;89.79;100175.44;5001033;28;20547;-69
2023/09/19 02:23:44;;;;;;;4.17;1.80;;;;;;;16.45;90.06;100175.06;4988813;28;20211;-69
2023/09/19 02:26:13;;;;;;;2.50;1.63;;;;;;;16.44;89.64;100174.28;4993376;28;20218;-69
2023/09/19 02:28:41;;;;;;;3.57;1.60;;;;;;;16.43;90.12;100174.66;5009842;28;20295;-69
2023/09/19 02:31:09;;;;;;;1.97;1.67;;;;;;;16.43;89.81;100183.41;4996236;28;20581;-68
2023/09/19 02:33:37;;;;;;;2.47;1.83;;;;;;;16.41;90.17;100176.94;4998597;28;20230;-69
2023/09/19 02:36:05;;;;;;;4.00;2.07;;;;;;;16.41;90.00;100183.00;4998776;28;20224;-69
2023/09/19 02:38:31;;;;;;;2.70;1.93;;;;;;;16.40;89.75;100170.81;4985933;28;20927;-70
2023/09/19 02:40:57;;;;;;;2.77;1.80;;;;;;;16.39;89.83;100171.19;4988463;28;20250;-70
2023/09/19 02:43:24;;;;;;;3.10;1.83;;;;;;;16.38;89.92;100172.31;4985459;28;20867;-68
2023/09/19 02:45:53;;;;;;;2.57;1.53;;;;;;;16.36;89.65;100164.69;4999673;28;20211;-69
2023/09/19 02:48:19;;;;;;;4.90;1.93;;;;;;;16.35;90.17;100170.41;4996924;28;20221;-69
2023/09/19 02:50:46;;;;;;;3.13;1.60;;;;;;;16.33;89.95;100173.44;4986258;28;20234;-69
2023/09/19 02:53:14;;;;;;;3.23;1.73;;;;;;;16.34;90.33;100169.63;5001838;28;20217;-69
2023/09/19 02:55:41;;;;;;;2.37;1.80;;;;;;;16.35;90.28;100163.16;4983015;28;20292;-69
2023/09/19 02:58:10;;;;;;;3.17;1.90;;;;;;;16.35;90.06;100167.75;4982577;28;20937;-69
2023/09/19 03:00:37;;;;;;;2.17;1.87;;;;;;;16.35;90.02;100178.41;5000819;28;20365;-69
2023/09/19 03:03:05;;;;;;;3.37;1.80;;;;;;;16.35;89.87;100181.81;4990501;28;20688;-69
2023/09/19 03:05:33;;;;;;;2.90;1.87;;;;;;;16.34;89.71;100176.84;4999031;28;20328;-68
2023/09/19 03:08:01;;;;;;;2.83;1.80;;;;;;;16.34;89.87;100180.28;4981056;28;20211;-69
2023/09/19 03:10:30;;;;;;;3.87;2.10;;;;;;;16.33;90.33;100189.44;4978408;28;20314;-68
2023/09/19 03:12:59;;;;;;;5.33;1.90;;;;;;;16.35;90.59;100178.41;4980098;28;20245;-69
2023/09/19 03:15:26;;;;;;;3.17;1.67;;;;;;;16.36;90.27;100186.00;4984211;28;20968;-69
2023/09/19 03:17:54;;;;;;;4.47;1.90;;;;;;;16.36;90.20;100185.25;4986126;28;20215;-70
2023/09/19 03:20:22;;;;;;;1.97;1.70;;;;;;;16.36;89.99;100186.00;4997974;28;20229;-69
2023/09/19 03:22:49;;;;;;;5.93;2.27;;;;;;;16.37;90.30;100194.78;4982517;28;20276;-69
2023/09/19 03:25:17;;;;;;;4.33;1.90;;;;;;;16.37;90.24;100194.78;5001697;28;20753;-68
2023/09/19 03:27:49;;;;;;;5.07;2.10;;;;;;;16.38;90.20;100191.75;5029775;22;20252;-72
2023/09/19 03:30:17;;;;;;;3.97;2.53;;;;;;;16.38;90.29;100199.72;4998772;22;20752;-70
2023/09/19 03:32:49;;;;;;;5.10;2.43;;;;;;;16.40;90.54;100199.41;4989005;28;21598;-69
2023/09/19 03:35:16;;;;;;;7.13;2.20;;;;;;;16.40;90.31;100197.47;4987783;28;20225;-69
2023/09/19 03:37:43;;;;;;;2.47;2.10;;;;;;;16.42;90.08;100202.44;4987704;28;20223;-70
2023/09/19 03:40:11;;;;;;;3.03;1.80;;;;;;;16.43;90.65;100198.63;4982836;28;21649;-68
2023/09/19 03:42:39;;;;;;;3.73;2.03;;;;;;;16.44;90.17;100206.25;4989961;28;20422;-69
2023/09/19 03:45:11;;;;;;;1.90;1.70;;;;;;;16.45;90.01;100199.03;4985379;28;20207;-69
2023/09/19 03:47:38;;;;;;;4.80;2.20;;;;;;;16.45;90.33;100207.03;4986720;28;21448;-69
2023/09/19 03:50:06;;;;;;;5.97;2.30;;;;;;;16.45;90.33;100213.13;4981133;28;20225;-69
2023/09/19 03:52:33;;;;;;;3.13;2.20;;;;;;;16.46;90.27;100208.56;4992599;28;20226;-69
2023/09/19 03:54:59;;;;;;;6.73;1.90;;;;;;;16.46;90.67;100206.63;5000141;28;20211;-69
2023/09/19 03:57:26;;;;;;;7.20;2.10;;;;;;;16.48;90.37;100216.94;4981906;28;20233;-69
2023/09/19 03:59:53;;;;;;;3.70;2.10;;;;;;;16.48;90.18;100220.38;5000647;28;20227;-69
2023/09/19 04:02:23;;;;;;;4.03;2.00;;;;;;;16.49;90.53;100224.56;4994025;28;20214;-69
2023/09/19 04:04:50;;;;;;;4.97;2.30;;;;;;;16.51;89.89;100224.19;4984045;28;20226;-69
2023/09/19 04:07:17;;;;;;;4.63;2.03;;;;;;;16.52;89.88;100231.81;4983042;28;20199;-69
2023/09/19 04:09:43;;;;;;;2.93;2.10;;;;;;;16.53;90.33;100228.03;4990227;28;20995;-70
2023/09/19 04:12:09;;;;;;;2.90;2.10;;;;;;;16.56;90.10;100231.84;4998415;28;20452;-70
2023/09/19 04:14:35;;;;;;;5.37;1.93;;;;;;;16.57;90.32;100236.78;4977956;28;20211;-69
2023/09/19 04:17:02;;;;;;;3.90;2.17;;;;;;;16.58;90.18;100243.66;4993815;28;20215;-69
2023/09/19 04:19:30;;;;;;;2.80;2.17;;;;;;;16.59;89.80;100237.19;4991804;28;20296;-69
2023/09/19 04:21:56;;;;;;;3.87;2.20;;;;;;;16.58;89.97;100234.88;4988788;28;21442;-69
2023/09/19 04:24:22;;;;;;;3.27;2.00;;;;;;;16.58;89.77;100234.88;4985916;28;20211;-69
2023/09/19 04:26:49;;;;;;;4.90;2.10;;;;;;;16.57;89.58;100234.13;4989604;28;20217;-69
2023/09/19 04:29:15;;;;;;;2.90;1.87;;;;;;;16.56;89.50;100227.25;4979779;28;20978;-69
2023/09/19 04:31:43;;;;;;;3.83;2.10;;;;;;;16.56;89.49;100224.59;4994948;28;21141;-69
2023/09/19 04:34:10;;;;;;;2.83;1.73;;;;;;;16.55;89.40;100225.72;4994704;28;20211;-70
2023/09/19 04:36:37;;;;;;;3.03;2.00;;;;;;;16.54;89.52;100231.44;4991594;28;20215;-69
2023/09/19 04:39:06;;;;;;;2.77;2.10;;;;;;;16.54;89.21;100232.22;4996533;28;21936;-69
2023/09/19 04:41:32;;;;;;;2.57;2.03;;;;;;;16.53;89.48;100240.56;4997677;28;20214;-69
2023/09/19 04:43:58;;;;;;;2.80;1.90;;;;;;;16.49;89.35;100235.22;4995034;28;21253;-69
2023/09/19 04:46:25;;;;;;;2.20;2.00;;;;;;;16.48;89.36;100244.38;4989283;28;23379;-69
2023/09/19 04:48:51;;;;;;;2.90;1.83;;;;;;;16.47;89.75;100256.16;5000070;28;20231;-69
2023/09/19 04:51:18;;;;;;;6.30;2.10;;;;;;;16.46;89.61;100246.63;4995247;28;20214;-69
2023/09/19 04:53:46;;;;;;;3.40;2.20;;;;;;;16.46;89.81;100249.28;4994962;28;20210;-69
2023/09/19 04:56:13;;;;;;;7.17;2.20;;;;;;;16.47;89.50;100255.41;4994739;28;20806;-71
2023/09/19 04:58:39;;;;;;;4.30;2.03;;;;;;;16.45;89.75;100253.09;4991209;28;20227;-70
2023/09/19 05:01:07;;;;;;;4.80;2.20;;;;;;;16.45;89.65;100258.41;4998694;28;20226;-69
2023/09/19 05:03:33;;;;;;;3.07;1.90;;;;;;;16.47;89.62;100256.16;4993522;28;20211;-71
2023/09/19 05:06:00;;;;;;;3.30;2.07;;;;;;;16.48;89.51;100263.03;4989712;28;20909;-71
2023/09/19 05:08:26;;;;;;;5.30;2.10;;;;;;;16.49;89.42;100266.44;4992206;28;20241;-71
2023/09/19 05:10:55;;;;;;;3.37;2.00;;;;;;;16.48;89.52;100271.03;4993526;28;20207;-69
2023/09/19 05:13:23;;;;;;;2.00;1.80;;;;;;;16.49;89.55;100271.75;4991085;28;20606;-70
2023/09/19 05:15:50;;;;;;;3.90;1.97;;;;;;;16.48;89.36;100276.34;4999482;28;20216;-70
2023/09/19 05:18:16;;;;;;;3.10;2.10;;;;;;;16.51;89.68;100269.50;5001160;28;20222;-71
2023/09/19 05:20:43;;;;;;;2.50;2.10;;;;;;;16.52;89.59;100266.47;4998891;28;20225;-70
2023/09/19 05:23:12;;;;;;;4.70;2.40;;;;;;;16.52;89.36;100276.38;5000110;28;20242;-70
2023/09/19 05:25:39;;;;;;;2.10;1.90;;;;;;;16.54;89.47;100279.41;4999707;28;20333;-70
2023/09/19 05:28:08;;;;;;;3.27;1.93;;;;;;;16.54;88.97;100279.41;5003035;28;20214;-72
2023/09/19 05:30:35;;;;;;;2.37;2.10;;;;;;;16.55;89.60;100289.72;5000536;28;20218;-71
2023/09/19 05:33:04;;;;;;;3.67;2.00;;;;;;;16.57;89.21;100287.44;4992796;28;20981;-69
2023/09/19 05:35:30;;;;;;;4.47;2.53;;;;;;;16.57;89.50;100292.75;4998482;28;20211;-70
2023/09/19 05:37:58;;;;;;;3.20;2.20;;;;;;;16.61;89.17;100303.47;5001368;28;20215;-69
2023/09/19 05:40:25;;;;;;;5.33;2.00;;;;;;;16.62;89.35;100305.75;5000734;28;20202;-69
2023/09/19 05:42:51;;;;;;;3.13;2.13;;;;;;;16.64;89.23;100300.81;5004773;28;20396;-70
2023/09/19 05:45:22;;;;;;;3.80;2.10;;;;;;;16.67;89.32;100310.72;5005712;28;21421;-71
2023/09/19 05:47:49;;;;;;;3.17;1.80;;;;;;;16.68;89.14;100304.28;5001447;28;20207;-71
2023/09/19 05:50:16;;;;;;;3.63;1.90;;;;;;;16.73;88.85;100309.25;5000648;28;20474;-70
2023/09/19 05:52:44;;;;;;;2.27;1.90;;;;;;;16.75;88.70;100309.63;5000393;28;20227;-71
2023/09/19 05:55:10;;;;;;;2.73;2.00;;;;;;;16.81;88.65;100323.41;5005067;28;20301;-70
2023/09/19 05:57:38;;;;;;;3.33;2.10;;;;;;;16.85;88.38;100324.16;5000199;28;20701;-71
2023/09/19 06:00:08;;;;;;;2.03;1.77;;;;;;;16.91;87.96;100328.00;5003313;28;20255;-70
2023/09/19 06:02:40;;;;;;;2.40;1.80;;;;;;;16.96;87.57;100336.44;4996723;28;20213;-70
2023/09/19 06:05:09;;;;;;;2.07;1.70;;;;;;;17.02;87.91;100334.19;4998526;28;20699;-70
2023/09/19 06:07:37;;;;;;;4.73;2.00;;;;;;;17.04;87.69;100338.00;4997116;28;20321;-70
2023/09/19 06:10:05;;;;;;;2.40;1.60;;;;;;;17.09;87.31;100347.53;4999285;28;20223;-70
2023/09/19 06:12:32;;;;;;;4.73;1.50;;;;;;;17.13;87.38;100338.41;5000663;28;20224;-70
2023/09/19 06:14:59;;;;;;;3.20;1.87;;;;;;;17.20;86.28;100353.69;5002358;28;20204;-70
2023/09/19 06:17:28;;;;;;;4.40;1.70;;;;;;;17.25;86.34;100356.00;4996797;28;20206;-71
2023/09/19 06:19:56;;;;;;;4.07;1.70;;;;;;;17.29;86.33;100354.88;5000012;28;20258;-71
2023/09/19 06:22:23;;;;;;;4.50;1.80;;;;;;;17.34;86.10;100365.19;4999299;28;20206;-70
2023/09/19 06:24:50;;;;;;;3.27;1.90;;;;;;;17.38;86.35;100366.00;4999568;28;20543;-70
2023/09/19 06:27:16;;;;;;;1.80;1.43;;;;;;;17.43;86.12;100370.22;4999393;28;20214;-71
2023/09/19 06:29:43;;;;;;;4.20;1.57;;;;;;;17.47;86.18;100370.97;4999546;28;20246;-70
2023/09/19 06:32:10;;;;;;;3.40;1.50;;;;;;;17.52;85.65;100378.63;4998284;28;20728;-70
2023/09/19 06:34:37;;;;;;;2.47;1.60;;;;;;;17.56;85.50;100374.06;4997878;28;20207;-71
2023/09/19 06:37:05;;;;;;;3.30;1.63;;;;;;;17.58;84.95;100375.22;5002110;28;20584;-70
2023/09/19 06:39:32;;;;;;;2.13;1.50;;;;;;;17.60;84.78;100378.28;4999013;28;21112;-70
2023/09/19 06:42:01;;;;;;;3.63;1.60;;;;;;;17.63;84.44;100388.22;4999129;28;20221;-70
2023/09/19 06:44:29;;;;;;;2.23;1.50;;;;;;;17.66;84.65;100387.47;4996796;28;20267;-70
2023/09/19 06:46:56;;;;;;;3.97;1.80;;;;;;;17.68;84.45;100382.50;4997261;28;20242;-69
2023/09/19 06:49:22;;;;;;;2.73;1.73;;;;;;;17.71;84.15;100391.69;5002001;28;20242;-69
2023/09/19 06:51:49;;;;;;;4.00;1.50;;;;;;;17.72;83.49;100396.66;5003270;28;20226;-70
2023/09/19 06:54:17;;;;;;;3.17;1.60;;;;;;;17.77;83.78;100411.53;5003805;28;20322;-69
2023/09/19 06:56:44;;;;;;;1.73;1.60;;;;;;;17.80;83.55;100408.88;5004038;28;20328;-69
2023/09/19 06:59:14;;;;;;;2.63;1.60;;;;;;;17.84;83.31;100408.88;5003549;28;20250;-71
2023/09/19 07:01:41;;;;;;;4.20;1.73;;;;;;;17.86;82.59;100412.69;5002340;28;20218;-70
2023/09/19 07:04:07;;;;;;;2.57;1.50;;;;;;;17.90;82.30;100418.06;5005152;28;20222;-71
2023/09/19 07:06:34;;;;;;;1.73;1.30;;;;;;;17.95;81.81;100423.03;5006505;28;21234;-71
2023/09/19 07:09:01;;;;;;;2.27;1.40;;;;;;;17.99;82.99;100431.81;5004145;28;20349;-70
2023/09/19 07:11:30;;;;;;;2.23;1.60;;;;;;;18.03;82.10;100433.38;4999977;28;20211;-70
2023/09/19 07:13:57;;;;;;;2.50;1.50;;;;;;;18.08;81.97;100432.22;5000728;28;20234;-71
2023/09/19 07:16:29;;;;;;;4.83;1.83;;;;;;;18.15;82.17;100434.91;5005332;28;20213;-70
2023/09/19 07:18:56;;;;;;;1.80;1.50;;;;;;;18.20;82.03;100440.66;5003032;28;20597;-70
2023/09/19 07:21:22;;;;;;;1.90;1.50;;;;;;;18.27;81.24;100440.66;5001904;28;20222;-69
2023/09/19 07:23:49;;;;;;;2.00;1.50;;;;;;;18.34;80.21;100448.72;5002460;28;20260;-69
2023/09/19 07:26:16;;;;;;;1.40;1.30;;;;;;;18.40;79.40;100452.56;5003059;28;20211;-70
2023/09/19 07:28:43;;;;;;;2.10;1.53;;;;;;;18.47;78.57;100457.91;5001626;28;20234;-70
2023/09/19 07:31:10;;;;;;;3.10;1.30;;;;;;;18.53;78.99;100463.66;5001758;28;21451;-70
2023/09/19 07:33:36;;;;;;;1.83;1.30;;;;;;;18.60;79.27;100459.06;5004268;28;20229;-70
2023/09/19 07:36:03;;;;;;;2.37;1.43;;;;;;;18.67;79.56;100463.66;5006072;28;20210;-69
2023/09/19 07:38:29;;;;;;;1.90;1.40;;;;;;;18.74;77.77;100469.00;5003768;28;20877;-70
2023/09/19 07:41:02;;;;;;;5.27;1.20;;;;;;;18.80;76.10;100470.94;5001658;28;20215;-71
2023/09/19 07:43:28;;;;;;;2.50;1.50;;;;;;;18.87;76.55;100475.50;4993337;28;20661;-70
2023/09/19 07:45:56;;;;;;;2.80;1.27;;;;;;;18.93;75.31;100471.31;4994768;28;20424;-70
2023/09/19 07:48:24;;;;;;;2.87;1.20;;;;;;;18.98;74.98;100477.00;4998740;28;20227;-70
2023/09/19 07:50:50;;;;;;;1.47;1.10;;;;;;;19.03;75.21;100483.88;5003639;28;20214;-70
2023/09/19 07:53:17;;;;;;;3.37;1.50;;;;;;;19.04;73.70;100477.41;5000204;28;21354;-69
2023/09/19 07:55:47;;;;;;;1.30;1.20;;;;;;;19.09;72.95;100479.69;4998841;28;20211;-69
2023/09/19 07:58:15;;;;;;;2.80;1.40;;;;;;;19.11;72.83;100482.75;5002523;28;20226;-70
2023/09/19 08:00:42;;;;;;;3.53;1.53;;;;;;;19.13;73.37;100480.44;4994352;28;20465;-71
2023/09/19 08:03:14;;;;;;;3.23;1.30;;;;;;;19.16;72.52;100485.81;5001380;28;20207;-71
2023/09/19 08:05:43;;;;;;;1.37;1.13;;;;;;;19.22;72.33;100478.16;4974936;28;20221;-70
2023/09/19 08:08:09;;;;;;;1.10;1.00;;;;;;;19.28;72.61;100495.34;5000381;28;20852;-71
2023/09/19 08:10:39;;;;;;;1.27;1.13;;;;;;;19.31;70.47;100489.25;4985299;28;20211;-70
2023/09/19 08:13:07;;;;;;;1.67;1.10;;;;;;;19.34;70.43;100494.59;4999455;28;20231;-70
2023/09/19 08:15:33;;;;;;;4.20;1.17;;;;;;;19.40;71.63;100498.41;5003325;28;20199;-70
2023/09/19 08:18:00;;;;;;;2.53;1.20;;;;;;;19.47;73.04;100494.94;4999173;28;22347;-70
2023/09/19 08:20:27;;;;;;;3.43;1.30;;;;;;;19.53;70.70;100507.56;5001417;28;20214;-71
2023/09/19 08:22:55;;;;;;;2.10;1.23;;;;;;;19.57;71.56;100511.00;5002325;28;21536;-69
2023/09/19 08:25:23;;;;;;;1.80;1.43;;;;;;;19.61;71.10;100511.72;5001849;28;20215;-70
2023/09/19 08:27:50;;;;;;;2.23;1.10;;;;;;;19.66;69.33;100516.69;5000654;28;21250;-69
2023/09/19 08:30:20;;;;;;;2.70;1.30;;;;;;;19.74;68.85;100517.44;4998873;28;20235;-69
2023/09/19 08:32:47;;;;;;;2.07;1.27;;;;;;;19.82;68.60;100510.91;4999972;28;20758;-69
2023/09/19 08:35:14;;;;;;;1.93;1.20;;;;;;;19.92;68.26;100520.84;4998191;28;20960;-69
2023/09/19 08:37:42;;;;;;;2.53;1.33;;;;;;;19.99;69.72;100528.84;5002194;28;20968;-69
2023/09/19 08:40:10;;;;;;;1.47;1.20;;;;;;;19.99;63.82;100523.47;4999010;28;20585;-69
2023/09/19 08:42:50;;;;;;;2.23;1.50;;;;;;;19.99;64.94;100526.16;4999391;28;21307;-70
2023/09/19 08:45:17;;;;;;;3.60;1.70;;;;;;;19.98;63.00;100535.34;4994162;28;20209;-69
2023/09/19 08:47:48;;;;;;;2.23;1.40;;;;;;;20.08;66.03;100537.25;4996528;28;20211;-70
2023/09/19 08:50:20;;;;;;;2.00;1.20;;;;;;;20.16;65.87;100525.34;4991488;28;20325;-69
2023/09/19 08:52:53;;;;;;;1.70;1.30;;;;;;;20.18;64.55;100521.13;4997359;28;20236;-69
2023/09/19 08:55:21;;;;;;;2.37;1.30;;;;;;;20.22;64.82;100524.53;5002358;28;20212;-69
2023/09/19 08:57:50;;;;;;;1.87;1.20;;;;;;;20.24;65.02;100526.84;4999543;28;20211;-69
2023/09/19 09:00:20;;;;;;;2.93;1.40;;;;;;;20.25;66.43;100523.78;4996305;28;21127;-70
2023/09/19 09:02:47;;;;;;;1.77;1.27;;;;;;;20.24;63.34;100524.91;4995902;28;20199;-70
2023/09/19 09:05:16;;;;;;;3.63;1.50;;;;;;;20.28;66.32;100528.34;4998601;28;20203;-69
2023/09/19 09:07:44;;;;;;;1.73;1.30;;;;;;;20.28;63.02;100522.97;4999964;28;21502;-70
2023/09/19 09:10:12;;;;;;;3.77;1.20;;;;;;;20.32;63.35;100537.13;4997747;28;20226;-70
2023/09/19 09:12:39;;;;;;;3.03;1.13;;;;;;;20.34;63.40;100528.72;4998664;28;20712;-69
2023/09/19 09:15:08;;;;;;;2.73;1.30;;;;;;;20.32;63.70;100528.31;5000721;28;20227;-69
2023/09/19 09:17:35;;;;;;;2.33;1.40;;;;;;;20.29;61.23;100531.81;4995865;28;20210;-69
2023/09/19 09:20:01;;;;;;;2.77;1.10;;;;;;;20.27;59.60;100532.19;4997785;28;20238;-69
2023/09/19 09:22:28;;;;;;;2.47;1.30;;;;;;;20.25;58.95;100528.38;5002142;28;20203;-69
2023/09/19 09:24:58;;;;;;;1.77;1.17;;;;;;;20.29;60.91;100537.16;4999259;28;20883;-70
2023/09/19 09:27:25;;;;;;;2.23;1.03;;;;;;;20.31;57.30;100535.63;4999664;28;20223;-69
2023/09/19 09:29:54;;;;;;;1.77;1.20;;;;;;;20.33;60.25;100527.94;4998208;28;20571;-69
2023/09/19 09:32:22;;;;;;;2.67;1.20;;;;;;;20.36;57.87;100529.84;4997920;28;20863;-69
2023/09/19 09:34:51;;;;;;;2.17;1.17;;;;;;;20.40;58.33;100519.88;4998129;28;20732;-70
2023/09/19 09:37:19;;;;;;;2.77;1.10;;;;;;;20.49;58.03;100530.91;4999229;28;20234;-69
2023/09/19 09:39:58;;;;;;;1.20;1.10;;;;;;;20.52;59.63;100534.72;4997571;28;20646;-69
2023/09/19 09:42:35;;;;;;;3.10;1.13;;;;;;;20.55;57.11;100517.84;4998464;28;20219;-69
2023/09/19 09:45:15;;;;;;;1.50;1.30;;;;;;;20.61;60.41;100522.41;5011476;22;20811;-73
2023/09/19 09:47:41;;;;;;;4.30;1.30;;;;;;;20.66;60.69;100527.38;4992965;28;20213;-73
2023/09/19 09:50:17;;;;;;;1.50;0.97;;;;;;;20.71;59.94;100537.69;4994081;28;20199;-73
2023/09/19 09:52:47;;;;;;;4.03;1.10;;;;;;;20.79;60.46;100530.31;4997922;28;21177;-73
2023/09/19 09:55:13;;;;;;;1.10;1.00;;;;;;;20.83;55.33;100529.16;4992753;28;20258;-73
2023/09/19 09:57:41;;;;;;;2.93;1.20;;;;;;;20.87;58.15;100546.00;4990337;28;20218;-74
2023/09/19 10:00:20;;;;;;;1.20;1.00;;;;;;;20.86;62.96;100541.00;4968511;28;20814;-73
2023/09/19 10:02:46;;;;;;;1.80;1.10;;;;;;;20.85;56.86;100547.56;4992084;28;20207;-72
2023/09/19 10:05:30;;;;;;;0.90;0.83;;;;;;;20.88;54.71;100536.00;4992397;28;20384;-73
2023/09/19 10:08:00;;;;;;;1.17;1.07;;;;;;;20.90;54.64;100539.09;4993884;28;20706;-72
2023/09/19 10:10:38;;;;;;;1.43;1.10;;;;;;;20.95;59.78;100539.44;4994459;28;20203;-72
2023/09/19 10:13:07;;;;;;;1.70;1.10;;;;;;;20.96;55.89;100546.31;4992965;28;20226;-73
2023/09/19 10:15:36;;;;;;;1.23;0.90;;;;;;;20.95;54.54;100536.00;4988150;28;20264;-72
2023/09/19 10:18:08;;;;;;;2.93;1.27;;;;;;;21.06;55.21;100550.09;4967981;28;20218;-73
2023/09/19 10:20:36;;;;;;;2.13;1.30;;;;;;;21.07;53.10;100548.94;4993761;28;20211;-73
2023/09/19 10:23:12;;;;;;;2.63;1.00;;;;;;;21.14;55.92;100548.88;4992486;28;20214;-72
2023/09/19 10:25:41;;;;;;;4.20;1.30;;;;;;;21.24;53.32;100548.00;4996177;28;20232;-72
2023/09/19 10:28:11;;;;;;;1.53;1.00;;;;;;;21.40;53.49;100551.72;4984153;28;20215;-72
2023/09/19 10:30:41;;;;;;;2.10;1.20;;;;;;;21.58;53.92;100570.34;4993391;28;20207;-72
2023/09/19 10:33:09;;;;;;;2.23;1.10;;;;;;;21.66;51.18;100550.28;4995544;28;20589;-72
2023/09/19 10:35:40;;;;;;;1.97;1.10;;;;;;;21.72;52.01;100556.78;4995551;28;21568;-72
2023/09/19 10:38:08;;;;;;;3.47;1.17;;;;;;;21.68;52.00;100556.06;5010874;28;20208;-72
2023/09/19 10:40:36;;;;;;;2.00;1.10;;;;;;;21.67;50.08;100565.28;5001569;28;21346;-73
2023/09/19 10:43:05;;;;;;;2.67;1.00;;;;;;;21.59;49.63;100553.06;4997983;28;20211;-73
2023/09/19 10:45:33;;;;;;;3.95;1.08;;;;;;;21.67;55.36;100565.28;4997734;28;20208;-72
2023/09/19 10:48:01;;;;;;;2.27;0.90;;;;;;;21.71;50.16;100555.25;4996297;28;20211;-72
2023/09/19 10:50:32;;;;;;;3.70;1.20;;;;;;;21.81;50.80;100563.22;4998055;28;21486;-73
2023/09/19 10:53:08;;;;;;;3.63;1.30;;;;;;;21.91;51.58;100556.19;4999812;28;21362;-73
2023/09/19 10:55:36;;;;;;;1.42;0.90;;;;;;;21.98;53.05;100553.44;4999670;28;20865;-73
2023/09/19 10:58:10;;;;;;;2.10;1.00;;;;;;;22.04;51.82;100551.81;4996669;28;20222;-73
2023/09/19 11:00:54;;;;;;;2.73;1.00;;;;;;;22.02;50.61;100559.50;4998647;28;20222;-73
2023/09/19 11:03:23;;;;;;;3.85;1.20;;;;;;;22.00;51.47;100559.16;4998757;28;21260;-73
2023/09/19 11:06:18;;;;;;;3.25;1.30;;;;;;;22.04;48.59;100555.25;4997166;28;20207;-73
2023/09/19 11:09:15;;;;;;;1.80;1.02;;;;;;;22.12;49.49;100564.00;4959248;28;20220;-72
2023/09/19 11:11:50;;;;;;;3.78;1.20;;;;;;;22.15;49.34;100565.91;4976798;28;21613;-73
2023/09/19 11:14:42;;;;;;;3.22;1.02;;;;;;;22.09;46.88;100572.88;4995066;28;20229;-73
2023/09/19 11:17:33;;;;;;;1.95;0.98;;;;;;;21.99;51.23;100563.75;4998198;28;21346;-72
2023/09/19 11:23:26;;;;;;;4.20;1.60;;;;;;;22.01;45.89;100564.13;4998852;28;20307;-73
2023/09/19 11:25:54;;;;;;;2.63;1.42;;;;;;;21.97;44.42;100565.31;4999437;28;20988;-72
2023/09/19 11:28:32;;;;;;;3.97;1.60;;;;;;;21.96;42.66;100561.91;4998130;28;20203;-73
2023/09/19 11:30:59;;;;;;;3.15;1.48;;;;;;;21.95;46.47;100563.06;4996964;28;20211;-73
2023/09/19 11:33:33;;;;;;;2.30;1.55;;;;;;;21.97;44.08;100563.41;4995520;28;20507;-73
2023/09/19 11:36:01;;;;;;;2.08;1.55;;;;;;;21.98;48.12;100556.13;4997163;28;21641;-73